Ekwok, Alaska
Current Conditions -  °F | °C
As of 5:27 AM on Thursday 27 Nov 2014 (Local Time) from PANW Reporting Station
Light Snow Light Snow  
Wind Chill: 27°   Ceiling: 2200
Heat Index: 27°   Visibility: 5mi
Dew Point: 27°   Wind: 0mph
Humidity: 100%   Direction: NA
Pressure: 30.2"   Gusts: NA
Location:  59.35°N, 157.48°W
Report Text: PANW 271427Z AUTO 00000KT 5SM -SN BR SCT002 BKN022 OVC032 M03/M03 A3020 RMK AO2 TSNO SNB11 P0000 $
Loading
Personal Weather Stations






























Interactive Weather Map New forecast layout! Learn more

10-Day Weather Forecast

Advertisements
Track Severe Weather on mobile